Time;durP1;ratioP1;P1;durP2;ratioP2;P2;SDS_P1;SDS_P2;PMS_P1;PMS_P2;Temp;Humidity;BMP_temperature;BMP_pressure;BME280_temperature;BME280_humidity;BME280_pressure;Samples;Min_cycle;Max_cycle;Signal;HPM_P1;HPM_P2
2022/06/26 00:00:45;;;;;;;5.95;4.28;;;11.60;99.90;;;;;;5113669;28;20390;-88
2022/06/26 00:03:12;;;;;;;6.18;5.53;;;11.60;99.90;;;;;;5114104;28;20374;-81
2022/06/26 00:05:39;;;;;;;6.47;4.03;;;11.60;99.90;;;;;;5113063;28;20390;-81
2022/06/26 00:08:08;;;;;;;5.68;4.18;;;11.70;99.90;;;;;;5105540;28;20426;-82
2022/06/26 00:10:35;;;;;;;6.95;4.50;;;11.90;99.90;;;;;;5116862;27;20382;-85
2022/06/26 00:13:02;;;;;;;16.13;12.07;;;12.10;99.90;;;;;;5104563;28;20456;-83
2022/06/26 00:15:29;;;;;;;5.70;4.60;;;12.30;99.90;;;;;;5109335;28;20371;-80
2022/06/26 00:17:56;;;;;;;6.57;4.43;;;12.30;99.90;;;;;;5113878;28;20787;-79
2022/06/26 00:20:24;;;;;;;6.00;4.68;;;12.50;99.90;;;;;;5113380;28;20366;-84
2022/06/26 00:22:51;;;;;;;7.22;4.50;;;12.50;99.90;;;;;;5117945;27;20425;-80
2022/06/26 00:25:18;;;;;;;6.65;4.72;;;12.60;99.90;;;;;;5112994;28;20385;-83
2022/06/26 00:27:46;;;;;;;5.67;4.53;;;12.70;99.90;;;;;;5098631;28;20409;-85
2022/06/26 00:30:14;;;;;;;6.72;4.50;;;12.80;99.90;;;;;;5113364;28;20877;-81
2022/06/26 00:32:42;;;;;;;7.88;4.43;;;13.00;99.90;;;;;;5111501;28;20401;-80
2022/06/26 00:35:10;;;;;;;6.93;4.90;;;13.10;99.90;;;;;;5112877;28;20434;-80
2022/06/26 00:37:37;;;;;;;5.88;4.70;;;13.20;99.90;;;;;;5112962;28;20445;-80
2022/06/26 00:40:04;;;;;;;6.68;4.85;;;13.30;99.90;;;;;;5109708;28;20888;-87
2022/06/26 00:42:32;;;;;;;7.03;4.80;;;13.50;99.90;;;;;;5104233;28;20391;-84
2022/06/26 00:44:59;;;;;;;5.93;5.13;;;13.60;99.90;;;;;;5098053;28;20762;-84
2022/06/26 00:47:27;;;;;;;9.13;5.20;;;13.60;99.90;;;;;;5101501;28;20410;-81
2022/06/26 00:49:54;;;;;;;6.20;5.60;;;13.70;99.90;;;;;;5106087;28;20467;-81
2022/06/26 00:52:22;;;;;;;7.28;4.78;;;13.90;99.90;;;;;;5108525;28;20391;-84
2022/06/26 00:54:51;;;;;;;7.05;4.97;;;13.90;99.90;;;;;;5111824;28;20366;-83
2022/06/26 00:57:19;;;;;;;20.87;8.90;;;14.00;99.90;;;;;;5110859;28;20879;-82
2022/06/26 00:59:48;;;;;;;6.18;4.72;;;14.10;99.90;;;;;;5104564;28;20382;-83
2022/06/26 01:02:16;;;;;;;7.82;4.57;;;14.20;99.90;;;;;;5092359;28;21080;-85
2022/06/26 01:04:43;;;;;;;8.80;4.57;;;14.30;99.90;;;;;;5111756;28;20487;-85
2022/06/26 01:07:11;;;;;;;7.15;4.55;;;14.40;99.90;;;;;;5105882;28;20483;-84
2022/06/26 01:09:38;;;;;;;6.13;4.63;;;14.60;99.90;;;;;;5101637;28;20393;-82
2022/06/26 01:12:06;;;;;;;7.07;4.70;;;14.80;99.90;;;;;;5111295;28;20519;-82
2022/06/26 01:14:33;;;;;;;16.75;5.28;;;14.90;99.90;;;;;;5111067;28;20406;-83
2022/06/26 01:17:01;;;;;;;5.95;4.72;;;15.00;99.90;;;;;;5110256;28;20379;-82
2022/06/26 01:19:30;;;;;;;7.05;4.97;;;15.10;99.90;;;;;;5110725;28;20387;-82
2022/06/26 01:21:57;;;;;;;6.15;4.75;;;15.40;99.90;;;;;;5111046;28;20374;-82
2022/06/26 01:24:24;;;;;;;7.82;4.60;;;15.50;99.90;;;;;;5110491;28;20382;-85
2022/06/26 01:26:51;;;;;;;7.03;5.38;;;15.80;99.90;;;;;;5083008;28;20373;-83
2022/06/26 01:29:18;;;;;;;5.85;4.40;;;15.70;99.90;;;;;;5084484;28;20402;-82
2022/06/26 01:31:46;;;;;;;6.10;4.73;;;15.90;99.90;;;;;;5110586;28;20386;-83
2022/06/26 01:34:13;;;;;;;12.10;5.38;;;16.10;99.90;;;;;;5108711;28;20374;-82
2022/06/26 01:36:41;;;;;;;5.68;4.60;;;16.30;99.90;;;;;;5110630;28;20426;-82
2022/06/26 01:39:08;;;;;;;6.18;5.20;;;16.20;99.90;;;;;;5110542;28;20399;-84
2022/06/26 01:41:35;;;;;;;7.50;5.15;;;16.10;99.90;;;;;;5108870;28;20931;-83
2022/06/26 01:44:02;;;;;;;7.38;5.28;;;15.90;99.90;;;;;;5110488;28;20715;-85
2022/06/26 01:46:30;;;;;;;7.80;6.15;;;15.80;99.90;;;;;;5110535;28;20741;-81
2022/06/26 01:48:57;;;;;;;7.60;5.40;;;15.90;99.90;;;;;;5110513;28;20409;-82
2022/06/26 01:51:24;;;;;;;9.20;5.82;;;16.00;99.90;;;;;;5108740;28;20769;-84
2022/06/26 01:53:51;;;;;;;6.38;5.20;;;16.10;99.90;;;;;;5088557;28;20413;-83
2022/06/26 01:56:19;;;;;;;6.63;5.20;;;16.20;99.90;;;;;;5110129;28;20378;-87
2022/06/26 01:58:50;;;;;;;7.15;5.30;;;16.30;99.90;;;;;;5107690;28;20372;-80
2022/06/26 04:31:28;;;;;;;1.10;0.75;;;20.60;67.50;;;;;;5066032;28;20382;-80
2022/06/26 04:33:58;;;;;;;2.25;0.70;;;19.40;66.60;;;;;;5055687;28;20420;-79
2022/06/26 04:36:25;;;;;;;1.00;0.75;;;19.40;67.40;;;;;;5059300;28;20402;-82
2022/06/26 04:38:53;;;;;;;1.08;0.80;;;19.30;67.10;;;;;;5064735;28;20811;-82
2022/06/26 04:41:34;;;;;;;1.70;0.70;;;19.30;69.00;;;;;;5053185;28;20410;-84
2022/06/26 04:44:07;;;;;;;1.38;1.10;;;19.30;67.20;;;;;;5067609;28;20417;-79
2022/06/26 04:46:35;;;;;;;1.60;0.90;;;19.30;69.30;;;;;;5067363;28;20372;-80
2022/06/26 04:49:02;;;;;;;10.07;1.10;;;19.30;68.30;;;;;;5063131;28;20805;-81
2022/06/26 04:51:30;;;;;;;7.20;0.80;;;19.30;68.10;;;;;;5054957;28;20876;-81
2022/06/26 04:53:57;;;;;;;1.15;0.90;;;19.30;69.10;;;;;;5054163;28;20930;-80
2022/06/26 04:56:24;;;;;;;4.13;1.10;;;19.40;69.20;;;;;;5064227;28;20474;-80
2022/06/26 04:58:53;;;;;;;1.40;1.10;;;19.60;69.00;;;;;;5063146;28;21098;-83
2022/06/26 05:01:21;;;;;;;1.35;0.90;;;19.60;69.00;;;;;;5058202;28;20386;-83
2022/06/26 05:03:48;;;;;;;1.08;0.88;;;19.50;69.80;;;;;;5067261;28;20843;-81
2022/06/26 05:06:15;;;;;;;1.50;0.90;;;19.50;70.70;;;;;;5063061;28;20389;-81
2022/06/26 05:08:42;;;;;;;3.63;1.00;;;19.40;70.90;;;;;;5063812;28;20827;-81
2022/06/26 05:11:09;;;;;;;1.30;0.95;;;19.20;71.30;;;;;;5059161;28;20841;-85
2022/06/26 05:13:36;;;;;;;2.03;0.73;;;19.10;72.50;;;;;;5062100;28;20398;-83
2022/06/26 05:16:04;;;;;;;1.38;0.80;;;19.00;73.30;;;;;;5066939;28;20462;-81
2022/06/26 05:18:31;;;;;;;2.40;0.90;;;18.90;72.10;;;;;;5055689;28;20385;-81
2022/06/26 05:20:59;;;;;;;2.63;0.90;;;18.90;73.70;;;;;;5056034;28;20919;-81
2022/06/26 05:23:26;;;;;;;2.95;1.05;;;18.80;74.70;;;;;;5051514;28;20439;-80
2022/06/26 05:25:53;;;;;;;1.50;0.95;;;18.80;71.50;;;;;;5053026;28;20729;-82
2022/06/26 05:28:20;;;;;;;4.30;1.13;;;18.70;74.20;;;;;;5052797;28;20758;-83
2022/06/26 05:30:47;;;;;;;1.13;1.00;;;18.60;75.80;;;;;;5053669;28;20448;-84
2022/06/26 05:33:14;;;;;;;1.63;1.15;;;18.50;76.40;;;;;;5063604;28;20394;-80
2022/06/26 05:35:41;;;;;;;3.70;1.20;;;18.50;78.30;;;;;;5058185;28;20867;-83
2022/06/26 05:38:09;;;;;;;2.77;1.20;;;18.40;79.70;;;;;;5066237;28;20394;-80
2022/06/26 05:40:36;;;;;;;3.03;1.50;;;18.30;81.00;;;;;;5061489;28;20415;-85
2022/06/26 05:43:03;;;;;;;2.88;1.60;;;18.30;83.20;;;;;;5052541;28;20438;-84
2022/06/26 05:45:30;;;;;;;3.65;1.73;;;18.20;84.80;;;;;;5053533;28;20756;-81
2022/06/26 05:47:57;;;;;;;2.85;1.70;;;18.10;86.10;;;;;;5046177;28;20385;-79
2022/06/26 05:50:24;;;;;;;2.97;1.88;;;17.90;88.50;;;;;;5032308;28;20424;-87
2022/06/26 05:52:52;;;;;;;17.77;2.40;;;17.80;88.90;;;;;;5040196;28;20384;-81
2022/06/26 05:55:19;;;;;;;2.92;2.00;;;17.60;89.90;;;;;;5050666;28;20521;-82
2022/06/26 05:57:46;;;;;;;4.85;2.15;;;17.50;90.90;;;;;;5048532;28;20996;-84
2022/06/26 06:00:14;;;;;;;88.55;12.10;;;17.50;91.70;;;;;;5049494;28;20409;-86
2022/06/26 06:02:41;;;;;;;6.82;2.60;;;17.30;93.80;;;;;;5042398;28;20388;-88
2022/06/26 06:05:09;;;;;;;7.97;3.13;;;17.20;93.90;;;;;;5039739;28;20452;-82
2022/06/26 06:07:37;;;;;;;4.80;2.45;;;17.00;94.80;;;;;;5033151;28;20870;-80
2022/06/26 06:10:06;;;;;;;3.13;2.17;;;16.90;95.10;;;;;;5030885;28;20488;-81
2022/06/26 06:12:34;;;;;;;4.68;2.38;;;16.80;95.50;;;;;;5033582;28;20476;-80
2022/06/26 06:15:01;;;;;;;3.92;2.38;;;16.60;96.20;;;;;;5034500;28;20376;-80
2022/06/26 06:17:40;;;;;;;4.68;2.30;;;16.50;96.70;;;;;;5045904;28;20397;-80
2022/06/26 06:20:19;;;;;;;3.60;2.20;;;16.40;97.80;;;;;;5031271;28;20386;-81
2022/06/26 06:22:53;;;;;;;4.55;2.10;;;16.20;98.90;;;;;;5028795;28;20760;-80
2022/06/26 06:25:22;;;;;;;4.20;2.35;;;16.10;98.60;;;;;;5041959;28;20927;-79
2022/06/26 06:27:49;;;;;;;2.78;2.20;;;16.00;98.90;;;;;;5030102;28;20486;-79
2022/06/26 06:30:17;;;;;;;4.45;2.60;;;15.80;99.20;;;;;;5044362;28;20449;-80
2022/06/26 06:32:45;;;;;;;4.55;2.75;;;15.60;99.60;;;;;;5037138;28;20389;-79
2022/06/26 06:35:13;;;;;;;3.67;2.90;;;15.50;99.90;;;;;;5040986;28;20893;-80
2022/06/26 06:37:42;;;;;;;7.85;3.50;;;15.30;99.90;;;;;;5037134;28;20387;-80
2022/06/26 06:40:11;;;;;;;7.47;3.87;;;15.20;99.90;;;;;;5038033;28;20399;-80
2022/06/26 06:42:39;;;;;;;7.95;4.50;;;15.10;99.90;;;;;;5031770;28;20389;-79
2022/06/26 06:45:06;;;;;;;6.57;4.80;;;14.90;99.90;;;;;;5047060;28;20388;-80
2022/06/26 06:47:34;;;;;;;7.18;4.50;;;14.80;99.90;;;;;;5043717;28;20385;-79
2022/06/26 06:50:01;;;;;;;6.22;3.40;;;14.80;99.90;;;;;;5034976;28;20444;-82
2022/06/26 06:52:28;;;;;;;109.47;95.25;;;14.70;99.90;;;;;;5043622;28;20525;-81
2022/06/26 06:54:55;;;;;;;22.75;19.60;;;14.60;99.90;;;;;;5045653;28;20379;-81
2022/06/26 06:57:22;;;;;;;20.95;17.88;;;14.50;99.90;;;;;;5031986;28;20874;-81
2022/06/26 06:59:49;;;;;;;13.97;11.57;;;14.20;99.90;;;;;;5045361;28;20441;-82
2022/06/26 07:02:17;;;;;;;15.98;11.90;;;14.10;99.90;;;;;;5044153;28;20884;-81
2022/06/26 07:04:44;;;;;;;9.25;7.50;;;13.90;99.90;;;;;;5033933;28;20389;-85
2022/06/26 07:07:11;;;;;;;11.05;7.32;;;13.80;99.90;;;;;;5045207;28;20382;-84
2022/06/26 07:09:38;;;;;;;10.18;7.18;;;13.60;99.90;;;;;;5031841;28;20947;-82
2022/06/26 07:12:06;;;;;;;10.97;6.70;;;13.50;99.90;;;;;;5034200;28;20443;-81
2022/06/26 07:14:33;;;;;;;7.63;6.03;;;13.40;99.90;;;;;;5041804;28;20753;-80
2022/06/26 07:17:00;;;;;;;13.27;8.23;;;13.30;99.90;;;;;;5035623;28;20933;-82
2022/06/26 07:19:28;;;;;;;12.48;7.70;;;13.40;99.90;;;;;;5047141;28;20380;-80
2022/06/26 07:21:55;;;;;;;12.10;7.88;;;13.40;99.90;;;;;;5037535;28;20388;-82
2022/06/26 07:24:23;;;;;;;10.18;7.50;;;13.40;99.90;;;;;;5050368;28;20422;-83
2022/06/26 07:26:50;;;;;;;8.93;6.60;;;13.30;99.90;;;;;;5037917;28;20397;-86
2022/06/26 07:29:17;;;;;;;9.45;6.10;;;13.20;99.90;;;;;;5036396;28;20396;-82
2022/06/26 07:31:44;;;;;;;13.23;7.53;;;13.30;99.90;;;;;;5051164;28;20383;-81
2022/06/26 07:34:15;;;;;;;29.05;15.05;;;13.30;99.90;;;;;;5038828;28;20784;-82
2022/06/26 07:36:47;;;;;;;13.43;7.20;;;13.40;99.90;;;;;;5041084;28;20879;-82
2022/06/26 07:39:18;;;;;;;12.82;7.57;;;13.50;99.90;;;;;;5035860;28;20435;-85
2022/06/26 07:41:47;;;;;;;10.73;7.32;;;13.50;99.90;;;;;;5036683;28;20474;-80
2022/06/26 07:44:14;;;;;;;13.73;7.93;;;13.40;99.90;;;;;;5038728;28;20396;-80
2022/06/26 07:46:42;;;;;;;13.03;9.60;;;13.50;99.90;;;;;;5030990;28;21256;-78
2022/06/26 07:49:09;;;;;;;14.90;8.90;;;13.50;99.90;;;;;;5039144;28;20411;-80
2022/06/26 07:51:37;;;;;;;15.02;8.98;;;13.40;99.90;;;;;;5037051;28;20988;-82
2022/06/26 07:54:04;;;;;;;14.27;9.40;;;13.40;99.90;;;;;;5029978;28;20468;-78
2022/06/26 07:56:31;;;;;;;18.45;11.23;;;13.30;99.90;;;;;;5044359;28;20675;-80
2022/06/26 07:58:59;;;;;;;17.30;12.13;;;14.00;99.90;;;;;;5036734;28;20467;-79
2022/06/26 08:01:27;;;;;;;17.03;9.73;;;13.30;99.90;;;;;;5044321;28;21310;-79
2022/06/26 08:03:54;;;;;;;13.75;9.70;;;13.30;99.90;;;;;;5043238;28;20411;-83
2022/06/26 08:06:22;;;;;;;12.68;10.00;;;13.30;99.90;;;;;;5035222;28;20397;-82
2022/06/26 08:08:51;;;;;;;18.73;11.03;;;13.30;99.90;;;;;;5032443;28;20395;-82
2022/06/26 08:11:18;;;;;;;16.17;11.13;;;13.20;99.90;;;;;;5034966;28;20409;-82
2022/06/26 08:13:46;;;;;;;18.85;12.30;;;13.10;99.90;;;;;;5046196;28;20384;-82
2022/06/26 08:16:13;;;;;;;14.93;10.32;;;13.10;99.90;;;;;;5043380;28;20450;-81
2022/06/26 08:18:40;;;;;;;16.13;10.68;;;13.10;99.90;;;;;;5030326;28;20381;-85
2022/06/26 08:23:53;;;;;;;16.58;11.23;;;13.00;99.90;;;;;;5032644;28;20389;-79
2022/06/26 08:26:20;;;;;;;16.55;11.80;;;12.90;99.90;;;;;;5046419;28;20378;-81
2022/06/26 08:28:47;;;;;;;19.27;13.82;;;12.80;99.90;;;;;;5040443;28;20821;-81
2022/06/26 08:31:15;;;;;;;34.15;26.35;;;12.70;99.90;;;;;;5038316;28;20544;-81
2022/06/26 08:33:42;;;;;;;27.58;22.50;;;12.70;99.90;;;;;;5046574;28;20378;-87
2022/06/26 08:36:10;;;;;;;115.90;98.10;;;12.70;99.90;;;;;;5049365;28;20372;-79
2022/06/26 08:38:39;;;;;;;28.73;21.08;;;12.70;99.90;;;;;;5049662;28;20513;-84
2022/06/26 08:41:09;;;;;;;37.67;30.83;;;12.70;99.90;;;;;;5035290;28;20394;-80
2022/06/26 08:43:39;;;;;;;48.28;39.67;;;12.70;99.90;;;;;;5030519;28;20442;-80
2022/06/26 08:46:07;;;;;;;36.40;27.17;;;12.50;99.90;;;;;;5049825;28;20388;-79
2022/06/26 08:48:45;;;;;;;26.63;20.63;;;12.40;99.90;;;;;;5047673;28;20442;-80
2022/06/26 08:51:12;;;;;;;32.45;25.02;;;12.40;99.90;;;;;;5049826;28;20436;-82
2022/06/26 08:53:41;;;;;;;27.13;20.47;;;12.40;99.90;;;;;;5050126;28;20375;-77
2022/06/26 08:56:08;;;;;;;24.23;19.75;;;12.30;99.90;;;;;;5038645;28;20389;-80
2022/06/26 08:58:35;;;;;;;28.08;21.92;;;12.30;99.90;;;;;;5047037;28;20721;-78
2022/06/26 09:01:04;;;;;;;27.73;19.95;;;12.30;99.90;;;;;;5050051;28;20770;-82
2022/06/26 09:03:35;;;;;;;22.88;18.08;;;12.30;99.90;;;;;;5034042;28;20385;-79
2022/06/26 09:06:03;;;;;;;23.48;16.70;;;12.30;99.90;;;;;;5038564;28;20458;-80
2022/06/26 09:08:31;;;;;;;22.95;17.48;;;12.30;99.90;;;;;;5049120;28;20738;-80
2022/06/26 09:10:58;;;;;;;32.60;23.40;;;12.30;99.90;;;;;;5024394;28;20403;-83
2022/06/26 09:13:41;;;;;;;30.83;22.35;;;12.30;99.90;;;;;;5049665;28;20425;-82
2022/06/26 09:16:09;;;;;;;69.85;56.17;;;12.20;99.90;;;;;;5049087;28;20395;-79
2022/06/26 09:18:41;;;;;;;28.45;21.85;;;12.20;99.90;;;;;;5046157;28;20389;-79
2022/06/26 09:21:11;;;;;;;39.95;30.27;;;12.20;99.90;;;;;;5053491;28;20387;-80
2022/06/26 09:23:52;;;;;;;32.25;24.42;;;12.20;99.90;;;;;;5053391;28;20375;-79
2022/06/26 09:26:19;;;;;;;28.77;21.50;;;12.20;99.90;;;;;;5025184;28;20412;-80
2022/06/26 09:28:46;;;;;;;45.70;35.80;;;12.20;99.90;;;;;;5042988;28;20372;-80
2022/06/26 09:31:19;;;;;;;37.80;29.65;;;12.20;99.90;;;;;;5055257;28;20443;-79
2022/06/26 09:33:46;;;;;;;33.40;21.90;;;12.10;99.90;;;;;;5043766;28;20370;-79
2022/06/26 09:36:19;;;;;;;28.67;22.35;;;12.00;99.90;;;;;;5048369;28;20804;-80
2022/06/26 09:38:51;;;;;;;24.30;15.90;;;11.90;99.90;;;;;;5034732;28;20753;-79
2022/06/26 09:41:32;;;;;;;26.17;18.27;;;11.90;99.90;;;;;;5036911;28;20405;-79
2022/06/26 09:44:00;;;;;;;18.80;12.23;;;11.90;99.90;;;;;;5038721;28;20394;-80
2022/06/26 09:46:32;;;;;;;20.60;14.27;;;11.90;99.90;;;;;;5034576;28;20937;-79
2022/06/26 09:49:00;;;;;;;16.65;12.02;;;11.80;99.90;;;;;;5041356;28;20731;-79
2022/06/26 09:51:28;;;;;;;10.20;7.97;;;11.80;99.90;;;;;;5030777;28;20417;-79
2022/06/26 09:53:55;;;;;;;15.00;8.53;;;11.90;99.90;;;;;;5040921;28;20950;-79
2022/06/26 09:56:22;;;;;;;9.27;7.43;;;11.90;99.90;;;;;;5052600;28;20457;-79
2022/06/26 09:58:54;;;;;;;9.77;7.82;;;11.90;99.90;;;;;;5036575;28;20382;-79
2022/06/26 10:06:57;;;;;;;19.45;17.05;;;11.90;99.90;;;;;;5032838;28;20408;-79
2022/06/26 10:09:26;;;;;;;14.80;13.30;;;12.00;99.90;;;;;;5033048;28;20378;-79
2022/06/26 10:11:56;;;;;;;14.90;10.25;;;12.00;99.90;;;;;;5032982;28;20396;-79
2022/06/26 10:14:33;;;;;;;12.60;9.45;;;11.90;99.90;;;;;;5031382;28;20439;-79
2022/06/26 10:17:24;;;;;;;15.15;11.25;;;11.80;99.90;;;;;;5031703;28;20431;-79
2022/06/26 10:19:51;;;;;;;18.30;9.93;;;11.70;99.90;;;;;;5032541;28;20460;-79
2022/06/26 10:22:18;;;;;;;18.52;10.68;;;11.70;99.90;;;;;;5031965;28;20386;-80
2022/06/26 10:25:00;;;;;;;16.85;10.40;;;11.60;99.90;;;;;;5031381;28;20396;-79
2022/06/26 10:27:37;;;;;;;13.98;8.88;;;11.60;99.90;;;;;;5030011;28;20462;-80
2022/06/26 10:30:10;;;;;;;14.30;9.52;;;11.60;99.90;;;;;;5018821;28;20426;-80
2022/06/26 10:32:37;;;;;;;15.45;9.80;;;11.60;99.90;;;;;;5031567;28;20389;-80
2022/06/26 10:35:06;;;;;;;16.17;8.80;;;11.60;99.90;;;;;;5031705;28;20429;-80
2022/06/26 10:37:47;;;;;;;16.65;8.38;;;11.60;99.90;;;;;;5031354;28;20374;-80
2022/06/26 10:43:16;;;;;;;17.08;8.98;;;11.50;99.90;;;;;;5030072;28;20883;-79
2022/06/26 10:45:43;;;;;;;15.68;8.07;;;11.40;99.90;;;;;;5031480;28;20388;-80
2022/06/26 10:48:23;;;;;;;14.97;7.90;;;11.30;99.90;;;;;;5031274;28;20434;-80
2022/06/26 10:51:03;;;;;;;17.17;9.20;;;11.20;99.90;;;;;;5030982;28;20397;-80
2022/06/26 10:53:39;;;;;;;15.93;8.40;;;11.20;99.90;;;;;;5030326;28;20432;-80
2022/06/26 10:56:08;;;;;;;19.10;13.45;;;11.10;99.90;;;;;;5030993;28;20389;-80
2022/06/26 10:58:42;;;;;;;36.40;30.17;;;11.10;99.90;;;;;;5029843;28;20393;-80
2022/06/26 11:01:11;;;;;;;22.50;15.70;;;11.10;99.90;;;;;;5031022;28;20398;-80
2022/06/26 11:03:40;;;;;;;19.03;12.73;;;11.00;99.90;;;;;;5032166;28;20385;-80
2022/06/26 11:06:09;;;;;;;21.27;17.15;;;11.00;99.90;;;;;;5024090;28;21893;-79
2022/06/26 11:08:45;;;;;;;20.52;13.30;;;10.90;99.90;;;;;;5031357;28;20366;-79
2022/06/26 11:11:27;;;;;;;20.95;14.20;;;10.90;99.90;;;;;;5031005;28;20766;-80
2022/06/26 11:13:58;;;;;;;20.92;16.45;;;10.80;99.90;;;;;;5028077;28;20385;-80
2022/06/26 11:16:31;;;;;;;21.70;15.32;;;10.70;99.90;;;;;;5033023;28;20400;-80
2022/06/26 11:19:00;;;;;;;19.33;14.02;;;10.70;99.90;;;;;;5027603;28;20405;-80
2022/06/26 11:21:28;;;;;;;17.10;11.95;;;10.60;99.90;;;;;;5031283;28;20469;-80
2022/06/26 11:23:56;;;;;;;19.83;11.23;;;10.60;99.90;;;;;;5030030;28;20399;-80
2022/06/26 11:26:23;;;;;;;13.77;9.93;;;10.60;99.90;;;;;;5030749;28;20415;-80
2022/06/26 11:29:03;;;;;;;9.18;7.28;;;10.50;99.90;;;;;;5030447;28;20870;-80
2022/06/26 11:31:32;;;;;;;9.50;7.22;;;10.50;99.90;;;;;;5030667;28;20417;-80
2022/06/26 11:34:14;;;;;;;7.63;6.20;;;10.60;99.90;;;;;;5031054;28;20788;-81
2022/06/26 11:36:52;;;;;;;8.30;6.13;;;10.60;99.90;;;;;;5028461;28;20460;-80
2022/06/26 11:39:19;;;;;;;8.55;5.22;;;10.60;99.90;;;;;;5029451;28;20390;-80
2022/06/26 11:41:47;;;;;;;8.60;4.07;;;10.60;99.90;;;;;;5030431;28;20874;-80
2022/06/26 11:44:14;;;;;;;8.00;4.30;;;10.60;99.90;;;;;;5030135;28;20408;-80
2022/06/26 11:46:42;;;;;;;7.65;5.03;;;10.70;99.90;;;;;;5030788;28;20428;-80
2022/06/26 11:49:13;;;;;;;7.65;4.10;;;10.60;99.90;;;;;;5030659;28;20416;-80
2022/06/26 11:51:41;;;;;;;7.30;4.10;;;10.70;99.90;;;;;;5021046;28;20401;-80
2022/06/26 11:54:08;;;;;;;7.75;4.20;;;10.70;99.90;;;;;;5030468;28;20370;-80
2022/06/26 11:56:36;;;;;;;4.82;3.50;;;10.70;99.90;;;;;;5029837;28;20397;-80
2022/06/26 11:59:04;;;;;;;7.35;3.60;;;10.70;99.90;;;;;;5029406;28;20392;-81
2022/06/26 12:01:35;;;;;;;7.63;3.50;;;10.70;99.90;;;;;;5029987;28;20381;-80
2022/06/26 12:04:06;;;;;;;8.30;4.00;;;10.70;99.90;;;;;;5030138;28;20381;-81
2022/06/26 12:06:41;;;;;;;7.33;4.30;;;10.70;99.90;;;;;;5030187;28;20392;-81
2022/06/26 12:09:17;;;;;;;10.15;4.53;;;10.70;99.90;;;;;;5030102;28;20388;-81
2022/06/26 12:11:46;;;;;;;7.78;4.20;;;10.70;99.90;;;;;;5029900;28;20397;-81
2022/06/26 12:14:20;;;;;;;10.02;4.53;;;10.70;99.90;;;;;;5029205;28;20481;-81
2022/06/26 12:17:04;;;;;;;8.35;4.47;;;10.70;99.90;;;;;;5029460;28;20468;-80
2022/06/26 12:19:41;;;;;;;6.72;3.90;;;10.60;99.90;;;;;;5029876;28;20377;-80
2022/06/26 12:22:12;;;;;;;6.78;3.67;;;10.50;99.90;;;;;;5028613;28;20623;-80
2022/06/26 12:24:50;;;;;;;6.10;3.40;;;10.50;99.90;;;;;;5026020;28;20393;-80
2022/06/26 12:27:17;;;;;;;6.13;3.90;;;10.40;99.90;;;;;;5029194;28;20378;-80
2022/06/26 12:29:44;;;;;;;9.05;4.85;;;10.30;99.90;;;;;;5029651;28;20801;-80
2022/06/26 12:32:11;;;;;;;7.20;4.43;;;10.30;99.90;;;;;;5029838;28;20385;-81
2022/06/26 12:34:39;;;;;;;7.03;4.25;;;10.30;99.90;;;;;;5029430;28;20378;-80
2022/06/26 12:37:06;;;;;;;8.20;3.95;;;10.30;99.90;;;;;;5028030;28;20424;-80
2022/06/26 12:39:35;;;;;;;6.07;3.67;;;10.40;99.90;;;;;;5042868;28;20496;-80
2022/06/26 12:42:02;;;;;;;8.17;3.60;;;10.40;99.90;;;;;;5029560;28;20796;-80
2022/06/26 12:44:31;;;;;;;9.35;6.57;;;10.40;99.90;;;;;;5029515;28;20386;-80
2022/06/26 12:46:58;;;;;;;10.38;5.72;;;10.40;99.90;;;;;;5029160;28;20381;-81
2022/06/26 12:49:25;;;;;;;8.35;5.22;;;10.40;99.90;;;;;;5029738;28;20404;-80
2022/06/26 12:51:53;;;;;;;7.72;4.93;;;10.30;99.90;;;;;;5032375;28;20451;-80
2022/06/26 12:54:20;;;;;;;9.00;4.40;;;10.30;99.90;;;;;;5030069;28;20378;-80
2022/06/26 12:56:47;;;;;;;10.20;4.00;;;10.30;99.90;;;;;;5031753;28;20734;-80
2022/06/26 12:59:14;;;;;;;8.50;3.00;;;10.20;99.90;;;;;;5033816;28;20424;-79
2022/06/26 13:01:42;;;;;;;9.20;3.15;;;10.30;99.90;;;;;;5032662;28;20393;-80
2022/06/26 13:04:09;;;;;;;11.70;4.82;;;10.30;99.90;;;;;;5032938;28;20388;-80
2022/06/26 13:06:36;;;;;;;15.55;7.18;;;10.40;99.90;;;;;;5033422;28;20394;-80
2022/06/26 13:09:03;;;;;;;18.38;8.88;;;10.50;99.90;;;;;;5032803;28;20381;-80
2022/06/26 13:11:31;;;;;;;20.25;8.05;;;10.50;99.90;;;;;;5034078;28;20409;-80
2022/06/26 13:13:59;;;;;;;11.82;6.63;;;10.60;99.90;;;;;;5033125;28;21207;-80
2022/06/26 13:16:26;;;;;;;16.80;6.00;;;10.60;99.90;;;;;;5031608;28;20397;-80
2022/06/26 13:18:53;;;;;;;15.55;5.38;;;10.60;99.90;;;;;;5032862;28;20385;-80
2022/06/26 13:21:21;;;;;;;7.13;3.72;;;10.60;99.90;;;;;;5033504;28;20381;-79
2022/06/26 13:23:49;;;;;;;8.52;4.38;;;10.60;99.90;;;;;;5031845;28;20904;-80
2022/06/26 13:26:16;;;;;;;14.80;6.55;;;10.50;99.90;;;;;;5032884;28;20428;-80
2022/06/26 13:28:43;;;;;;;12.30;6.25;;;10.50;99.90;;;;;;5033429;28;20409;-80
2022/06/26 13:31:10;;;;;;;11.75;6.20;;;10.40;99.90;;;;;;5047045;28;20406;-80
2022/06/26 13:33:37;;;;;;;12.27;5.60;;;10.40;99.90;;;;;;5040682;28;20717;-80
2022/06/26 13:36:05;;;;;;;12.35;5.88;;;10.30;99.90;;;;;;5049466;28;20416;-80
2022/06/26 13:38:33;;;;;;;14.50;6.90;;;10.20;99.90;;;;;;5037201;28;20384;-80
2022/06/26 13:41:01;;;;;;;12.82;6.80;;;10.10;99.90;;;;;;5051098;28;20376;-81
2022/06/26 13:43:28;;;;;;;18.95;6.35;;;10.10;99.90;;;;;;5046220;28;20385;-81
2022/06/26 13:45:56;;;;;;;11.23;4.30;;;10.00;99.90;;;;;;5032180;28;20389;-80
2022/06/26 13:48:23;;;;;;;10.88;4.57;;;10.00;99.90;;;;;;5032033;28;20405;-80
2022/06/26 13:50:50;;;;;;;13.50;3.57;;;10.00;99.90;;;;;;5032315;28;20459;-81
2022/06/26 13:53:17;;;;;;;11.05;3.60;;;10.00;99.90;;;;;;5048490;28;20372;-79
2022/06/26 13:55:44;;;;;;;9.02;2.90;;;10.00;99.90;;;;;;5035748;28;20400;-80
2022/06/26 13:58:11;;;;;;;7.45;2.78;;;10.00;99.90;;;;;;5032453;28;20854;-80
2022/06/26 14:00:39;;;;;;;6.68;2.85;;;10.10;99.90;;;;;;5033713;28;20402;-80
2022/06/26 14:03:06;;;;;;;7.28;3.67;;;10.20;99.90;;;;;;5032302;28;20393;-80
2022/06/26 14:05:33;;;;;;;10.20;7.60;;;10.20;99.90;;;;;;5038296;28;20423;-80
2022/06/26 14:08:00;;;;;;;6.35;3.30;;;10.20;99.90;;;;;;5038153;28;20391;-80
2022/06/26 14:10:27;;;;;;;3.90;2.10;;;10.20;99.90;;;;;;5038533;28;20407;-80
2022/06/26 14:12:54;;;;;;;6.40;2.58;;;10.20;99.90;;;;;;5044059;28;20379;-80
2022/06/26 14:15:21;;;;;;;7.20;2.90;;;10.30;99.90;;;;;;5036077;28;20396;-80
2022/06/26 14:17:48;;;;;;;9.95;2.92;;;10.50;99.90;;;;;;5040987;28;20389;-79
2022/06/26 14:20:16;;;;;;;11.63;3.78;;;10.60;99.90;;;;;;5034884;28;20452;-80
2022/06/26 14:28:15;;;;;;;9.02;3.50;;;11.10;99.90;;;;;;5037672;28;20395;-79
2022/06/26 14:30:43;;;;;;;6.00;2.28;;;11.30;99.90;;;;;;5042422;28;20529;-79
2022/06/26 14:33:10;;;;;;;5.00;1.70;;;11.40;99.90;;;;;;5046504;28;20479;-79
2022/06/26 14:35:38;;;;;;;4.35;1.30;;;11.40;99.90;;;;;;5041993;28;20396;-79
2022/06/26 14:38:05;;;;;;;2.83;1.30;;;11.50;99.90;;;;;;5037798;28;20444;-80
2022/06/26 14:40:32;;;;;;;3.03;1.80;;;11.50;99.90;;;;;;5036714;28;20385;-80
2022/06/26 14:42:59;;;;;;;3.25;1.52;;;11.40;99.90;;;;;;5031915;28;20792;-80
2022/06/26 14:45:26;;;;;;;3.70;1.20;;;11.30;99.90;;;;;;5033796;28;20381;-80
2022/06/26 14:47:53;;;;;;;3.15;1.40;;;11.10;99.90;;;;;;5036682;28;20397;-80
2022/06/26 14:50:20;;;;;;;2.60;1.50;;;10.90;99.90;;;;;;5051075;28;20404;-80
2022/06/26 14:52:48;;;;;;;5.50;3.33;;;10.80;99.90;;;;;;5041325;28;20427;-80
2022/06/26 14:55:15;;;;;;;6.65;4.88;;;10.70;99.90;;;;;;5035438;28;20405;-80
2022/06/26 14:57:42;;;;;;;3.42;1.80;;;10.60;99.90;;;;;;5032721;28;20423;-80
2022/06/26 15:00:10;;;;;;;14.52;13.07;;;10.50;99.90;;;;;;5036269;28;20481;-79
2022/06/26 15:02:38;;;;;;;8.07;5.95;;;10.40;99.90;;;;;;5030215;28;20386;-80
2022/06/26 15:05:05;;;;;;;6.50;3.88;;;10.20;99.90;;;;;;5031986;28;20797;-80
2022/06/26 15:07:33;;;;;;;7.17;5.80;;;10.10;99.90;;;;;;5044183;28;20381;-80
2022/06/26 15:10:00;;;;;;;4.93;2.30;;;10.00;99.90;;;;;;5031391;28;20405;-80
2022/06/26 15:12:27;;;;;;;3.25;2.33;;;9.90;99.90;;;;;;5035550;28;20385;-80
2022/06/26 15:14:54;;;;;;;5.37;3.20;;;9.90;99.90;;;;;;5031729;28;20808;-80
2022/06/26 15:17:21;;;;;;;4.65;3.55;;;9.90;99.90;;;;;;5033891;28;20392;-80
2022/06/26 15:19:48;;;;;;;5.03;3.60;;;9.90;99.90;;;;;;5032000;28;20519;-79
2022/06/26 15:22:15;;;;;;;5.50;3.72;;;9.80;99.90;;;;;;5032692;28;20402;-80
2022/06/26 15:24:45;;;;;;;5.63;3.43;;;9.80;99.90;;;;;;5047385;28;20533;-80
2022/06/26 15:27:12;;;;;;;6.05;3.90;;;9.70;99.90;;;;;;5034523;28;20502;-79
2022/06/26 15:29:40;;;;;;;5.70;3.90;;;9.70;99.90;;;;;;5041604;28;20410;-80
2022/06/26 15:32:13;;;;;;;6.72;4.50;;;9.60;99.90;;;;;;5045035;28;20453;-80
2022/06/26 15:34:42;;;;;;;6.43;4.25;;;9.50;99.90;;;;;;5034231;28;20386;-80